Time;durP1;ratioP1;P1;durP2;ratioP2;P2;SDS_P1;SDS_P2;PMS_P1;PMS_P2;Temp;Humidity;BMP_temperature;BMP_pressure;BME280_temperature;BME280_humidity;BME280_pressure;Samples;Min_cycle;Max_cycle;Signal;HPM_P1;HPM_P2
2022/04/12 00:00:43;;;;;;;5.28;4.03;;;6.90;99.90;;;;;;5000053;28;20403;-70
2022/04/12 00:03:10;;;;;;;6.85;3.83;;;6.90;99.90;;;;;;5007680;28;20494;-72
2022/04/12 00:05:37;;;;;;;7.55;4.07;;;6.90;99.90;;;;;;4994258;28;20046;-71
2022/04/12 00:08:05;;;;;;;10.40;4.18;;;7.40;99.90;;;;;;4990901;28;20081;-71
2022/04/12 00:10:31;;;;;;;8.50;3.72;;;6.80;99.90;;;;;;4984404;28;20458;-71
2022/04/12 00:12:59;;;;;;;7.60;3.97;;;6.80;99.90;;;;;;5002146;28;20069;-71
2022/04/12 00:15:25;;;;;;;6.97;3.70;;;6.80;99.90;;;;;;5000001;28;20054;-72
2022/04/12 00:20:36;;;;;;;9.68;3.95;;;6.70;99.90;;;;;;4985325;28;20049;-71
2022/04/12 00:23:02;;;;;;;9.00;4.68;;;6.70;99.90;;;;;;5000086;28;20084;-71
2022/04/12 00:25:28;;;;;;;8.48;4.47;;;6.80;99.90;;;;;;4999955;28;20486;-71
2022/04/12 00:27:56;;;;;;;7.50;4.57;;;6.60;99.90;;;;;;5001742;28;20073;-72
2022/04/12 00:30:23;;;;;;;5.50;3.90;;;6.60;99.90;;;;;;4999830;28;20833;-71
2022/04/12 00:32:55;;;;;;;7.53;4.88;;;6.60;99.90;;;;;;4983050;28;20522;-71
2022/04/12 00:35:23;;;;;;;9.50;4.32;;;6.70;99.90;;;;;;4982603;28;20050;-71
2022/04/12 00:37:53;;;;;;;8.63;4.45;;;6.50;99.90;;;;;;4981353;28;20430;-71
2022/04/12 00:40:24;;;;;;;9.05;4.20;;;6.50;99.90;;;;;;5012581;28;20456;-71
2022/04/12 00:42:51;;;;;;;7.70;4.57;;;6.50;99.90;;;;;;4994704;28;20046;-71
2022/04/12 00:45:17;;;;;;;8.70;4.30;;;6.50;99.90;;;;;;5002649;28;20049;-71
2022/04/12 00:47:44;;;;;;;8.82;4.47;;;6.40;99.90;;;;;;4998697;28;20414;-71
2022/04/12 00:50:11;;;;;;;10.18;4.72;;;6.50;99.90;;;;;;5000641;28;20116;-72
2022/04/12 00:52:49;;;;;;;9.05;4.55;;;6.80;99.90;;;;;;4981545;28;20376;-70
2022/04/12 00:55:16;;;;;;;8.73;5.03;;;6.40;99.90;;;;;;5000121;28;20048;-71
2022/04/12 00:57:42;;;;;;;7.63;4.72;;;6.40;99.90;;;;;;5003176;28;20045;-72
2022/04/12 01:00:10;;;;;;;9.43;4.80;;;6.40;99.90;;;;;;4995873;28;20045;-72
2022/04/12 01:02:37;;;;;;;7.68;4.63;;;6.40;99.90;;;;;;5000619;28;20054;-73
2022/04/12 01:05:04;;;;;;;8.60;4.63;;;6.50;99.90;;;;;;4994269;28;20128;-71
2022/04/12 01:07:31;;;;;;;9.05;4.85;;;6.50;99.90;;;;;;4994298;28;20571;-72
2022/04/12 01:09:58;;;;;;;8.93;4.85;;;6.50;99.90;;;;;;4993499;28;20054;-71
2022/04/12 01:12:27;;;;;;;9.02;5.15;;;6.50;99.90;;;;;;4994597;28;20053;-71
2022/04/12 01:14:53;;;;;;;11.85;4.95;;;6.50;99.90;;;;;;4994700;28;20064;-72
2022/04/12 01:17:19;;;;;;;11.50;5.10;;;6.50;99.90;;;;;;4994763;28;20096;-72
2022/04/12 01:19:45;;;;;;;7.57;4.88;;;6.50;99.90;;;;;;4994056;28;20049;-71
2022/04/12 01:22:17;;;;;;;9.13;4.93;;;6.50;99.90;;;;;;4994407;28;20129;-72
2022/04/12 01:24:44;;;;;;;8.60;4.70;;;6.50;99.90;;;;;;4993379;28;20046;-72
2022/04/12 01:27:10;;;;;;;9.32;4.88;;;6.40;99.90;;;;;;4994083;28;20042;-71
2022/04/12 01:29:36;;;;;;;10.55;5.57;;;6.50;99.90;;;;;;4976867;28;20107;-73
2022/04/12 01:32:07;;;;;;;9.18;4.80;;;6.40;99.90;;;;;;4978001;28;20115;-71
2022/04/12 01:34:35;;;;;;;8.80;4.90;;;6.40;99.90;;;;;;4994682;28;20045;-71
2022/04/12 01:37:02;;;;;;;7.72;4.82;;;6.40;99.90;;;;;;4988055;28;20061;-72
2022/04/12 01:39:30;;;;;;;14.30;5.68;;;6.40;99.90;;;;;;4993702;28;20057;-72
2022/04/12 01:41:56;;;;;;;10.43;5.47;;;6.30;99.90;;;;;;5000325;28;20113;-75
2022/04/12 01:44:22;;;;;;;8.35;5.15;;;6.30;99.90;;;;;;4992963;28;20593;-72
2022/04/12 01:46:48;;;;;;;9.60;5.05;;;6.30;99.90;;;;;;4992936;28;20128;-72
2022/04/12 01:49:14;;;;;;;10.95;5.10;;;6.30;99.90;;;;;;4990726;28;20056;-73
2022/04/12 01:51:39;;;;;;;10.82;5.32;;;6.30;99.90;;;;;;4990765;28;20133;-72
2022/04/12 01:54:05;;;;;;;11.07;5.40;;;6.30;99.90;;;;;;4990538;28;20096;-72
2022/04/12 01:56:32;;;;;;;12.23;5.32;;;6.30;99.90;;;;;;4992977;28;20092;-73
2022/04/12 01:59:03;;;;;;;9.43;5.32;;;6.30;99.90;;;;;;4988852;28;20065;-72
2022/04/12 02:01:29;;;;;;;8.48;5.13;;;6.30;99.90;;;;;;5004014;28;21115;-72
2022/04/12 02:03:55;;;;;;;6.65;5.13;;;6.30;99.90;;;;;;5002140;28;20052;-72
2022/04/12 02:06:21;;;;;;;10.90;6.22;;;6.30;99.90;;;;;;5002229;28;20353;-72
2022/04/12 02:08:47;;;;;;;9.18;5.70;;;6.30;99.90;;;;;;4987887;28;20042;-71
2022/04/12 02:11:13;;;;;;;10.00;5.78;;;6.30;99.90;;;;;;4969964;28;20416;-72
2022/04/12 02:13:39;;;;;;;10.32;5.88;;;6.50;99.90;;;;;;5006231;28;20111;-72
2022/04/12 02:16:05;;;;;;;8.55;5.65;;;6.20;99.90;;;;;;5025151;28;20387;-74
2022/04/12 02:18:31;;;;;;;11.40;6.03;;;6.30;99.90;;;;;;5012027;28;20121;-72
2022/04/12 02:20:57;;;;;;;10.88;5.93;;;6.30;99.90;;;;;;5026327;28;20125;-72
2022/04/12 02:23:23;;;;;;;14.02;6.82;;;6.20;99.90;;;;;;5028958;28;20061;-72
2022/04/12 02:25:48;;;;;;;9.85;5.78;;;6.20;99.90;;;;;;4997385;28;20050;-71
2022/04/12 02:28:17;;;;;;;11.35;5.90;;;6.20;99.90;;;;;;4973668;28;20089;-72
2022/04/12 02:30:44;;;;;;;12.02;6.40;;;6.20;99.90;;;;;;5013134;28;20107;-72
2022/04/12 02:33:10;;;;;;;11.10;6.20;;;6.10;99.90;;;;;;5013763;28;20060;-72
2022/04/12 02:35:36;;;;;;;11.05;6.10;;;6.10;99.90;;;;;;5010296;28;20076;-72
2022/04/12 02:38:02;;;;;;;11.35;6.70;;;6.10;99.90;;;;;;5005151;28;20439;-72
2022/04/12 02:40:28;;;;;;;10.93;6.68;;;6.10;99.90;;;;;;5007891;28;20141;-73
2022/04/12 02:42:54;;;;;;;11.05;6.20;;;6.10;99.90;;;;;;5012933;28;20124;-72
2022/04/12 02:45:20;;;;;;;12.70;6.43;;;6.10;99.90;;;;;;4993255;28;20052;-72
2022/04/12 02:47:45;;;;;;;12.15;7.05;;;6.10;99.90;;;;;;4975818;28;20444;-72
2022/04/12 02:50:11;;;;;;;12.48;6.25;;;6.10;99.90;;;;;;4991028;28;20053;-72
2022/04/12 02:52:38;;;;;;;11.60;6.85;;;6.40;99.90;;;;;;4982856;28;20039;-72
2022/04/12 02:55:05;;;;;;;11.05;6.75;;;6.10;99.90;;;;;;4995430;28;20446;-72
2022/04/12 02:57:31;;;;;;;12.40;7.00;;;6.10;99.90;;;;;;4999712;28;20107;-72
2022/04/12 02:59:57;;;;;;;12.15;6.72;;;6.20;99.90;;;;;;5005811;28;20495;-72
2022/04/12 03:02:23;;;;;;;11.93;7.45;;;6.10;99.90;;;;;;5004693;28;20045;-72
2022/04/12 03:04:48;;;;;;;14.68;6.72;;;6.40;99.90;;;;;;5002182;28;20060;-73
2022/04/12 03:07:15;;;;;;;13.85;7.75;;;6.20;99.90;;;;;;4982207;28;20038;-72
2022/04/12 03:09:41;;;;;;;13.82;7.20;;;6.60;99.90;;;;;;4998950;28;20399;-72
2022/04/12 03:12:08;;;;;;;11.55;7.75;;;6.10;99.90;;;;;;5003158;28;20049;-72
2022/04/12 03:14:34;;;;;;;12.77;7.57;;;6.10;99.90;;;;;;5005333;28;20046;-72
2022/04/12 03:17:00;;;;;;;16.15;7.90;;;6.50;99.90;;;;;;5034142;28;20452;-72
2022/04/12 03:19:26;;;;;;;14.02;7.70;;;6.10;99.90;;;;;;5004246;28;20440;-74
2022/04/12 03:21:52;;;;;;;13.88;7.88;;;6.10;99.90;;;;;;5032846;28;20124;-72
2022/04/12 03:24:17;;;;;;;13.85;7.68;;;6.00;99.90;;;;;;4997898;28;20434;-71
2022/04/12 03:26:43;;;;;;;12.13;7.72;;;6.60;99.90;;;;;;5030597;28;20569;-72
2022/04/12 03:29:09;;;;;;;14.95;8.02;;;6.10;99.90;;;;;;5031232;28;20114;-74
2022/04/12 03:31:35;;;;;;;11.18;7.82;;;6.30;99.90;;;;;;5008400;28;20045;-72
2022/04/12 03:34:01;;;;;;;12.68;7.18;;;5.90;99.90;;;;;;5008759;28;20050;-72
2022/04/12 03:36:27;;;;;;;13.25;7.70;;;6.50;99.90;;;;;;4984523;28;20045;-72
2022/04/12 03:38:52;;;;;;;13.82;7.45;;;5.90;99.90;;;;;;5027024;28;20038;-72
2022/04/12 03:41:22;;;;;;;12.27;7.13;;;6.30;99.90;;;;;;5015092;28;20437;-72
2022/04/12 03:43:49;;;;;;;15.27;8.25;;;5.90;99.90;;;;;;5006236;28;20042;-73
2022/04/12 03:46:15;;;;;;;12.65;7.97;;;6.00;99.90;;;;;;4997983;28;20539;-72
2022/04/12 03:48:41;;;;;;;14.43;8.73;;;5.90;99.90;;;;;;5006450;28;20546;-72
2022/04/12 03:51:07;;;;;;;13.50;8.45;;;6.60;99.90;;;;;;5015011;28;20050;-74
2022/04/12 03:53:33;;;;;;;14.57;8.50;;;6.00;99.90;;;;;;5008874;28;20044;-72
2022/04/12 03:55:59;;;;;;;17.48;8.93;;;6.00;99.90;;;;;;5028680;28;20475;-72
2022/04/12 03:58:26;;;;;;;13.43;8.30;;;6.20;99.90;;;;;;5000155;28;20049;-72
2022/04/12 04:00:52;;;;;;;15.82;8.65;;;5.80;99.90;;;;;;4987161;28;20064;-73
2022/04/12 04:03:18;;;;;;;15.48;8.20;;;5.80;99.90;;;;;;5023390;28;20415;-72
2022/04/12 04:05:45;;;;;;;12.43;7.97;;;5.80;99.90;;;;;;5001744;28;20103;-72
2022/04/12 04:08:11;;;;;;;15.30;8.80;;;6.00;99.90;;;;;;4996737;28;20196;-72
2022/04/12 04:10:37;;;;;;;13.52;8.20;;;5.80;99.90;;;;;;5003604;28;20038;-72
2022/04/12 04:13:08;;;;;;;14.45;8.75;;;5.70;99.90;;;;;;4985994;28;20077;-72
2022/04/12 04:15:40;;;;;;;15.80;8.73;;;6.50;99.90;;;;;;4986112;28;20054;-72
2022/04/12 04:18:07;;;;;;;16.52;8.75;;;5.70;99.90;;;;;;5016549;28;20115;-72
2022/04/12 04:20:33;;;;;;;13.77;7.78;;;5.70;99.90;;;;;;4991486;28;20199;-72
2022/04/12 04:22:59;;;;;;;16.90;8.80;;;5.70;99.90;;;;;;5008269;28;20054;-72
2022/04/12 04:25:25;;;;;;;14.38;8.32;;;5.90;99.90;;;;;;4997466;28;20052;-73
2022/04/12 04:27:52;;;;;;;14.65;8.00;;;5.70;99.90;;;;;;5002048;28;20450;-73
2022/04/12 04:30:19;;;;;;;13.98;8.68;;;5.70;99.90;;;;;;5012141;28;20195;-72
2022/04/12 04:32:45;;;;;;;12.60;8.43;;;5.70;99.90;;;;;;5000011;28;20077;-71
2022/04/12 04:35:12;;;;;;;13.95;8.00;;;6.20;99.90;;;;;;5027793;28;20099;-71
2022/04/12 04:37:45;;;;;;;12.95;7.55;;;5.70;99.90;;;;;;5018583;28;20152;-72
2022/04/12 04:40:17;;;;;;;13.68;8.30;;;5.70;99.90;;;;;;4994349;28;20126;-71
2022/04/12 04:42:44;;;;;;;15.18;8.15;;;5.70;99.90;;;;;;5002334;28;20066;-72
2022/04/12 04:45:15;;;;;;;13.70;8.18;;;5.60;99.90;;;;;;5000468;28;20050;-72
2022/04/12 04:47:48;;;;;;;17.48;8.65;;;5.70;99.90;;;;;;5005946;28;20058;-71
2022/04/12 04:50:14;;;;;;;13.38;8.32;;;5.60;99.90;;;;;;5001988;28;20081;-71
2022/04/12 04:52:40;;;;;;;14.20;8.60;;;5.70;99.90;;;;;;5030719;28;20050;-71
2022/04/12 04:55:05;;;;;;;13.15;8.63;;;5.60;99.90;;;;;;5001382;28;20050;-71
2022/04/12 04:57:31;;;;;;;15.32;8.30;;;5.60;99.90;;;;;;5017840;28;20060;-72
2022/04/12 04:59:57;;;;;;;12.45;8.10;;;5.60;99.90;;;;;;4971310;28;20040;-73
2022/04/12 05:02:23;;;;;;;14.40;8.73;;;5.60;99.90;;;;;;5029171;28;20056;-72
2022/04/12 05:04:48;;;;;;;15.95;8.68;;;6.30;99.90;;;;;;4990467;28;20050;-72
2022/04/12 05:07:25;;;;;;;12.52;7.80;;;5.60;99.90;;;;;;5029341;28;20403;-72
2022/04/12 05:09:52;;;;;;;13.57;7.95;;;5.60;99.90;;;;;;4980953;28;20046;-72
2022/04/12 05:12:18;;;;;;;13.70;8.50;;;5.60;99.90;;;;;;4996104;28;20076;-71
2022/04/12 05:14:43;;;;;;;14.32;8.48;;;6.50;99.90;;;;;;5031166;28;20050;-71
2022/04/12 05:17:09;;;;;;;15.98;8.40;;;5.60;99.90;;;;;;5027889;28;20100;-72
2022/04/12 05:19:36;;;;;;;15.20;7.97;;;5.90;99.90;;;;;;5030114;28;20071;-71
2022/04/12 05:22:01;;;;;;;16.23;8.57;;;5.60;99.90;;;;;;4981159;28;20049;-72
2022/04/12 05:24:27;;;;;;;14.95;8.32;;;5.60;99.90;;;;;;5033950;28;20061;-72
2022/04/12 05:26:53;;;;;;;15.15;7.88;;;5.90;99.90;;;;;;5003030;28;20050;-71
2022/04/12 05:29:19;;;;;;;14.77;8.68;;;5.60;99.90;;;;;;5027849;28;21065;-71
2022/04/12 05:31:44;;;;;;;13.73;8.15;;;5.60;99.90;;;;;;5025883;28;20049;-72
2022/04/12 05:34:10;;;;;;;13.95;8.23;;;6.00;99.90;;;;;;4967184;28;20045;-71
2022/04/12 05:36:36;;;;;;;15.82;8.73;;;5.60;99.90;;;;;;5001863;28;20061;-72
2022/04/12 05:39:02;;;;;;;15.38;8.35;;;5.60;99.90;;;;;;5007472;28;20561;-72
2022/04/12 05:41:28;;;;;;;14.25;8.27;;;5.60;99.90;;;;;;4993614;28;20734;-72
2022/04/12 05:43:53;;;;;;;13.98;8.27;;;5.70;99.90;;;;;;5013710;28;20050;-72
2022/04/12 05:46:19;;;;;;;13.43;8.07;;;6.00;99.90;;;;;;4981252;28;20046;-72
2022/04/12 05:48:45;;;;;;;15.38;8.55;;;5.80;99.90;;;;;;4983616;28;20042;-72
2022/04/12 05:51:11;;;;;;;12.68;8.02;;;6.00;99.90;;;;;;4980748;28;20057;-71
2022/04/12 05:53:37;;;;;;;13.98;8.48;;;5.90;99.90;;;;;;5021007;28;20407;-71
2022/04/12 05:56:03;;;;;;;13.48;8.02;;;6.00;99.90;;;;;;5013114;28;20513;-71
2022/04/12 05:58:32;;;;;;;14.63;8.73;;;6.10;99.90;;;;;;5034850;28;20046;-71
2022/04/12 06:00:58;;;;;;;14.40;9.23;;;6.20;99.90;;;;;;5034282;28;20046;-72
2022/04/12 06:03:24;;;;;;;14.38;8.18;;;6.30;99.90;;;;;;4992228;28;20473;-72
2022/04/12 06:05:49;;;;;;;17.90;8.73;;;6.50;99.90;;;;;;5027903;28;20080;-71
2022/04/12 06:08:15;;;;;;;12.77;8.27;;;7.00;99.90;;;;;;5035097;28;20046;-71
2022/04/12 06:10:41;;;;;;;15.38;8.55;;;6.80;99.90;;;;;;5001543;28;20042;-71
2022/04/12 06:13:07;;;;;;;15.43;9.15;;;7.00;99.90;;;;;;5001274;28;20046;-72
2022/04/12 06:15:33;;;;;;;15.23;9.10;;;7.20;99.90;;;;;;4977079;28;20132;-71
2022/04/12 06:17:59;;;;;;;14.63;8.95;;;7.30;99.90;;;;;;5008017;28;20487;-72
2022/04/12 06:20:25;;;;;;;14.27;8.57;;;7.50;99.90;;;;;;4989337;28;20113;-72
2022/04/12 06:22:50;;;;;;;13.30;8.73;;;7.60;99.90;;;;;;4989835;28;20077;-71
2022/04/12 06:25:19;;;;;;;14.25;8.98;;;7.70;99.90;;;;;;4991094;28;20057;-70
2022/04/12 06:27:50;;;;;;;15.25;8.88;;;7.80;99.90;;;;;;5022719;28;20096;-71
2022/04/12 06:30:24;;;;;;;15.73;8.75;;;7.90;99.90;;;;;;4989177;28;20054;-70
2022/04/12 06:32:51;;;;;;;13.40;9.05;;;7.90;99.90;;;;;;5010776;28;20084;-69
2022/04/12 06:35:17;;;;;;;12.38;8.93;;;7.90;99.90;;;;;;4992912;28;20054;-72
2022/04/12 06:37:45;;;;;;;16.00;9.27;;;8.00;99.90;;;;;;4993926;28;20043;-71
2022/04/12 06:40:14;;;;;;;17.05;8.95;;;7.90;99.90;;;;;;4999382;28;20065;-70
2022/04/12 06:42:40;;;;;;;12.98;8.60;;;7.90;99.90;;;;;;4992568;28;20125;-71
2022/04/12 06:45:11;;;;;;;14.00;8.52;;;7.90;99.90;;;;;;4992827;28;20155;-72
2022/04/12 06:47:37;;;;;;;14.90;9.07;;;8.00;99.90;;;;;;4995101;28;20077;-72
2022/04/12 06:50:04;;;;;;;14.18;8.40;;;8.10;99.90;;;;;;4993115;28;20050;-72
2022/04/12 06:52:30;;;;;;;14.77;9.07;;;8.10;99.90;;;;;;4992081;28;20585;-71
2022/04/12 06:54:56;;;;;;;12.85;8.90;;;8.10;99.90;;;;;;4997167;28;20042;-72
2022/04/12 06:57:22;;;;;;;14.25;8.80;;;8.10;99.90;;;;;;5011170;28;20541;-72
2022/04/12 06:59:48;;;;;;;14.35;9.23;;;8.20;99.90;;;;;;5026476;28;20047;-72
2022/04/12 07:02:14;;;;;;;13.85;8.55;;;8.20;99.90;;;;;;4977892;28;20108;-71
2022/04/12 07:04:40;;;;;;;14.80;8.95;;;8.30;99.90;;;;;;5035581;28;20050;-71
2022/04/12 07:07:05;;;;;;;13.30;8.90;;;8.40;99.90;;;;;;5003159;28;20134;-72
2022/04/12 07:09:31;;;;;;;14.30;9.13;;;8.40;99.90;;;;;;4995760;28;20125;-71
2022/04/12 07:11:59;;;;;;;13.55;9.10;;;8.40;99.90;;;;;;4992789;28;20129;-71
2022/04/12 07:14:26;;;;;;;15.05;9.52;;;8.60;99.90;;;;;;4980832;28;20065;-71
2022/04/12 07:16:52;;;;;;;15.45;9.07;;;8.60;99.90;;;;;;4993193;28;20052;-72
2022/04/12 07:19:18;;;;;;;14.13;8.45;;;8.70;99.90;;;;;;4996153;28;20057;-72
2022/04/12 07:21:44;;;;;;;14.40;9.02;;;8.70;99.90;;;;;;5029125;28;20430;-71
2022/04/12 07:24:10;;;;;;;13.98;9.02;;;8.80;99.90;;;;;;4995734;28;20117;-72
2022/04/12 07:26:39;;;;;;;16.63;9.45;;;8.80;99.90;;;;;;4993793;28;20132;-73
2022/04/12 07:29:05;;;;;;;14.40;9.05;;;8.80;99.90;;;;;;4994341;28;20076;-71
2022/04/12 07:31:31;;;;;;;16.38;10.02;;;8.80;99.90;;;;;;5030174;28;20042;-71
2022/04/12 07:33:57;;;;;;;12.57;9.27;;;8.70;99.90;;;;;;4979344;28;20046;-71
2022/04/12 07:36:23;;;;;;;14.18;9.23;;;8.70;99.90;;;;;;4980827;28;20502;-72
2022/04/12 07:38:49;;;;;;;16.50;9.90;;;8.80;99.90;;;;;;4995002;28;20061;-72
2022/04/12 07:41:16;;;;;;;12.38;8.93;;;8.80;99.90;;;;;;5012151;28;20049;-72
2022/04/12 07:43:42;;;;;;;16.27;8.88;;;8.90;99.90;;;;;;4994512;28;20072;-72
2022/04/12 07:46:08;;;;;;;13.82;9.38;;;9.10;99.90;;;;;;4980284;28;20418;-72
2022/04/12 07:48:34;;;;;;;14.18;8.95;;;9.30;99.90;;;;;;4995518;28;20081;-71
2022/04/12 07:51:00;;;;;;;14.18;9.43;;;9.50;99.90;;;;;;4978627;28;20455;-71
2022/04/12 07:53:26;;;;;;;14.10;8.73;;;9.70;99.90;;;;;;5000223;28;20767;-73
2022/04/12 07:55:52;;;;;;;15.48;8.90;;;9.80;99.90;;;;;;5009632;28;20077;-72
2022/04/12 07:58:18;;;;;;;17.35;8.90;;;10.00;99.90;;;;;;4987569;28;20054;-72
2022/04/12 08:00:43;;;;;;;14.57;8.77;;;10.20;99.90;;;;;;5028508;28;20112;-71
2022/04/12 08:03:09;;;;;;;15.23;8.85;;;10.30;99.90;;;;;;5011555;28;20050;-71
2022/04/12 08:05:35;;;;;;;14.52;8.98;;;10.40;99.90;;;;;;5009238;28;20046;-72
2022/04/12 08:08:02;;;;;;;13.90;8.73;;;10.50;99.90;;;;;;4982254;28;20078;-72
2022/04/12 08:10:28;;;;;;;13.80;9.38;;;10.50;99.90;;;;;;5010827;28;20825;-72
2022/04/12 08:12:55;;;;;;;14.10;8.98;;;10.70;99.90;;;;;;4999382;28;20571;-72
2022/04/12 08:15:22;;;;;;;16.15;9.10;;;10.80;99.90;;;;;;5011168;28;20058;-72
2022/04/12 08:17:48;;;;;;;16.08;9.13;;;11.00;99.90;;;;;;5010932;28;20052;-72
2022/04/12 08:20:14;;;;;;;15.98;8.52;;;11.10;99.90;;;;;;5000703;28;20045;-72
2022/04/12 08:22:41;;;;;;;13.52;9.13;;;11.20;99.90;;;;;;5027588;28;20073;-71
2022/04/12 08:25:08;;;;;;;14.48;9.52;;;11.30;99.90;;;;;;5007321;28;20050;-71
2022/04/12 08:27:34;;;;;;;13.93;9.80;;;11.40;99.90;;;;;;5016522;28;20089;-71
2022/04/12 08:30:02;;;;;;;14.35;9.10;;;11.50;99.90;;;;;;5026450;28;20085;-71
2022/04/12 08:32:29;;;;;;;13.50;9.07;;;11.60;99.90;;;;;;4993746;28;20133;-72
2022/04/12 08:34:55;;;;;;;14.05;8.68;;;11.70;99.90;;;;;;5018047;28;20410;-74
2022/04/12 08:37:21;;;;;;;14.88;9.45;;;11.70;99.90;;;;;;4999461;28;20462;-72
2022/04/12 08:39:47;;;;;;;13.98;9.25;;;11.80;99.90;;;;;;5024808;28;20112;-73
2022/04/12 08:42:14;;;;;;;14.77;9.10;;;12.00;99.90;;;;;;5016035;28;20049;-72
2022/04/12 08:44:45;;;;;;;13.93;9.50;;;12.00;99.90;;;;;;5011136;28;20114;-72
2022/04/12 08:47:15;;;;;;;14.00;8.77;;;12.30;99.90;;;;;;4993687;28;20049;-71
2022/04/12 08:49:41;;;;;;;15.13;9.27;;;12.40;99.90;;;;;;4993842;28;20042;-71
2022/04/12 08:52:12;;;;;;;14.38;9.05;;;12.50;99.90;;;;;;4993377;28;20049;-73
2022/04/12 08:54:45;;;;;;;13.55;9.05;;;12.70;99.90;;;;;;4993371;28;20037;-72
2022/04/12 08:57:12;;;;;;;14.52;9.80;;;12.90;99.90;;;;;;4992333;28;20045;-72
2022/04/12 08:59:39;;;;;;;12.52;8.60;;;13.30;99.90;;;;;;5011525;28;20046;-72
2022/04/12 09:02:09;;;;;;;16.55;9.40;;;13.40;99.90;;;;;;4993823;28;20037;-72
2022/04/12 09:04:36;;;;;;;13.25;9.18;;;13.50;99.90;;;;;;4977692;28;20482;-72
2022/04/12 09:07:07;;;;;;;14.07;9.15;;;13.60;99.90;;;;;;5010901;28;20079;-72
2022/04/12 09:09:33;;;;;;;12.90;9.35;;;13.70;99.90;;;;;;5009325;28;20406;-72
2022/04/12 09:12:06;;;;;;;15.95;10.00;;;13.90;99.90;;;;;;4994764;28;20056;-73
2022/04/12 09:14:48;;;;;;;13.13;9.43;;;14.20;99.90;;;;;;5007034;28;20053;-74
2022/04/12 09:17:18;;;;;;;13.13;9.35;;;14.20;94.10;;;;;;4994685;28;20065;-72
2022/04/12 09:19:49;;;;;;;14.63;9.50;;;14.20;99.30;;;;;;4992651;28;20143;-72
2022/04/12 09:22:21;;;;;;;15.43;9.57;;;14.40;95.20;;;;;;4992200;28;20442;-71
2022/04/12 09:24:51;;;;;;;14.15;9.27;;;14.50;99.90;;;;;;5009863;28;20060;-72
2022/04/12 09:27:24;;;;;;;14.85;10.35;;;14.70;94.50;;;;;;4977845;28;20053;-72
2022/04/12 09:29:59;;;;;;;14.27;9.55;;;14.60;92.10;;;;;;4993759;28;20100;-71
2022/04/12 09:32:28;;;;;;;12.07;9.27;;;14.70;94.00;;;;;;4994942;28;20072;-73
2022/04/12 09:34:55;;;;;;;13.15;9.43;;;14.70;99.90;;;;;;4997385;28;20085;-74
2022/04/12 09:37:26;;;;;;;17.10;9.98;;;14.70;96.30;;;;;;4998029;28;20390;-72
2022/04/12 09:39:59;;;;;;;14.68;9.38;;;14.70;92.70;;;;;;5011483;28;20116;-72
2022/04/12 09:42:48;;;;;;;15.15;10.20;;;14.70;94.10;;;;;;4996347;28;20401;-73
2022/04/12 09:45:25;;;;;;;13.18;9.75;;;14.70;91.80;;;;;;5029833;28;20053;-72
2022/04/12 09:47:52;;;;;;;15.35;9.80;;;14.80;96.40;;;;;;5014872;28;20038;-72
2022/04/12 09:50:23;;;;;;;18.83;9.85;;;14.70;93.50;;;;;;5012592;28;20037;-73
2022/04/12 09:53:01;;;;;;;13.32;9.30;;;14.80;91.70;;;;;;4997850;28;20052;-73
2022/04/12 09:55:34;;;;;;;15.80;9.43;;;14.80;90.30;;;;;;5000935;28;20057;-73
2022/04/12 09:58:09;;;;;;;15.88;9.80;;;15.00;94.00;;;;;;5009522;28;20081;-72
2022/04/12 10:00:36;;;;;;;15.73;10.20;;;15.10;93.50;;;;;;4999268;28;20129;-73
2022/04/12 10:03:07;;;;;;;14.43;10.15;;;15.20;92.20;;;;;;5003114;28;20058;-73
2022/04/12 10:05:33;;;;;;;14.18;9.98;;;15.20;93.00;;;;;;4981645;28;20054;-73
2022/04/12 10:08:03;;;;;;;16.38;10.07;;;15.20;91.90;;;;;;5000083;28;20046;-73
2022/04/12 10:10:29;;;;;;;15.75;10.10;;;15.30;88.90;;;;;;5015447;28;20049;-72
2022/04/12 10:12:57;;;;;;;14.23;9.40;;;15.50;90.10;;;;;;5000038;28;20133;-73
2022/04/12 10:15:25;;;;;;;12.40;9.60;;;15.60;85.90;;;;;;5008931;28;20062;-72
2022/04/12 10:17:52;;;;;;;13.82;9.43;;;15.70;86.50;;;;;;4981659;28;20042;-73
2022/04/12 10:20:19;;;;;;;15.50;9.70;;;15.90;86.80;;;;;;4987389;28;20045;-75
2022/04/12 10:22:46;;;;;;;16.58;10.32;;;16.00;89.80;;;;;;4985633;28;20099;-77
2022/04/12 10:25:20;;;;;;;18.83;10.52;;;16.20;85.10;;;;;;4981121;28;20287;-78
2022/04/12 10:27:48;;;;;;;15.57;10.02;;;16.20;87.50;;;;;;4996367;28;20076;-76
2022/04/12 10:30:25;;;;;;;15.07;9.88;;;16.40;88.80;;;;;;4997467;28;20096;-76
2022/04/12 10:33:05;;;;;;;16.50;10.20;;;16.50;83.30;;;;;;4981273;28;20044;-74
2022/04/12 10:35:51;;;;;;;13.63;9.65;;;16.70;84.90;;;;;;4996715;28;20056;-74
2022/04/12 10:38:24;;;;;;;14.38;9.88;;;16.80;80.10;;;;;;5027780;28;20054;-73
2022/04/12 10:40:56;;;;;;;15.95;10.48;;;16.90;83.90;;;;;;4998448;28;20069;-73
2022/04/12 10:43:24;;;;;;;15.55;9.98;;;17.00;83.70;;;;;;5012638;28;20049;-73
2022/04/12 10:45:51;;;;;;;14.20;10.43;;;16.90;79.90;;;;;;4996420;28;20141;-72
2022/04/12 10:48:24;;;;;;;15.00;10.10;;;16.90;80.30;;;;;;5007718;28;20099;-71
2022/04/12 10:50:53;;;;;;;15.75;10.10;;;17.00;76.80;;;;;;5026355;28;20041;-74
2022/04/12 10:53:42;;;;;;;14.23;10.88;;;17.10;81.70;;;;;;4993658;28;20045;-74
2022/04/12 10:56:10;;;;;;;14.15;10.50;;;17.10;77.00;;;;;;5004239;28;20502;-73
2022/04/12 10:58:36;;;;;;;13.57;10.25;;;17.20;79.80;;;;;;4999963;28;20049;-79
2022/04/12 11:01:04;;;;;;;18.23;10.80;;;17.40;79.60;;;;;;5005529;28;20399;-75
2022/04/12 11:03:42;;;;;;;15.55;10.20;;;17.50;77.80;;;;;;4996379;28;20471;-74
2022/04/12 11:06:15;;;;;;;16.17;11.25;;;17.40;74.30;;;;;;4996408;28;20103;-73
2022/04/12 11:08:49;;;;;;;13.40;10.18;;;17.60;78.20;;;;;;5012263;28;20041;-72
2022/04/12 11:11:41;;;;;;;16.17;10.75;;;17.70;77.80;;;;;;5005945;28;20049;-72
2022/04/12 11:14:32;;;;;;;14.73;10.18;;;17.80;78.10;;;;;;4986938;28;20061;-73
2022/04/12 11:17:02;;;;;;;;;;;18.00;77.20;;;;;;5007678;28;20569;-74
2022/04/12 11:19:40;;;;;;;13.73;10.38;;;18.00;73.00;;;;;;5028952;28;19922;-75
2022/04/12 11:22:10;;;;;;;14.48;10.35;;;18.10;77.40;;;;;;5002295;28;20441;-76
2022/04/12 11:24:36;;;;;;;15.50;11.05;;;18.30;78.10;;;;;;4998409;28;20444;-80
2022/04/12 11:27:05;;;;;;;15.85;10.93;;;18.10;78.30;;;;;;5013547;28;20049;-76
2022/04/12 11:29:31;;;;;;;14.43;10.48;;;18.30;75.80;;;;;;5010400;28;20076;-78
2022/04/12 11:31:58;;;;;;;15.95;10.30;;;18.50;77.00;;;;;;4999802;28;20085;-75
2022/04/12 11:34:26;;;;;;;15.75;10.77;;;18.40;75.50;;;;;;5013273;28;20125;-75
2022/04/12 11:37:07;;;;;;;15.73;11.15;;;18.50;75.40;;;;;;4980165;28;20046;-74
2022/04/12 11:39:40;;;;;;;17.85;10.80;;;18.50;75.00;;;;;;5001360;28;20042;-74
2022/04/12 11:42:11;;;;;;;12.85;9.75;;;18.80;76.00;;;;;;5006795;28;20057;-75
2022/04/12 11:44:37;;;;;;;14.80;10.35;;;19.10;71.70;;;;;;5010763;28;20133;-75
2022/04/12 11:47:09;;;;;;;16.38;10.32;;;18.90;72.70;;;;;;4965713;28;20085;-74
2022/04/12 11:49:40;;;;;;;13.27;9.45;;;18.80;68.50;;;;;;5014155;28;20049;-76
2022/04/12 11:52:08;;;;;;;14.07;9.68;;;19.00;71.70;;;;;;4997795;28;20054;-80
2022/04/12 11:54:35;;;;;;;19.63;10.88;;;18.90;69.40;;;;;;5026815;28;20046;-76
2022/04/12 11:57:21;;;;;;;16.40;10.52;;;19.40;72.70;;;;;;4995959;28;20065;-77
2022/04/12 11:59:46;;;;;;;14.70;10.60;;;19.70;67.70;;;;;;4993811;28;20052;-79
2022/04/12 12:02:14;;;;;;;19.38;10.57;;;19.80;71.90;;;;;;4996385;28;20054;-74
2022/04/12 12:04:56;;;;;;;14.80;10.55;;;19.80;69.00;;;;;;5027230;28;20050;-77
2022/04/12 12:07:22;;;;;;;13.90;10.35;;;20.10;67.80;;;;;;4996006;28;20041;-74
2022/04/12 12:09:56;;;;;;;16.55;10.45;;;19.80;68.90;;;;;;4994592;28;20048;-73
2022/04/12 12:12:42;;;;;;;16.17;11.25;;;19.60;69.30;;;;;;4995906;28;20041;-74
2022/04/12 12:15:24;;;;;;;18.80;10.85;;;19.40;67.20;;;;;;4994461;28;21432;-78
2022/04/12 12:17:51;;;;;;;15.25;11.38;;;19.60;70.60;;;;;;5027439;28;20042;-76
2022/04/12 12:20:19;;;;;;;16.15;10.65;;;19.70;70.70;;;;;;4995430;28;20069;-78
2022/04/12 12:22:46;;;;;;;16.48;10.60;;;19.70;71.90;;;;;;4994933;28;20042;-79
2022/04/12 12:25:18;;;;;;;15.32;11.05;;;19.80;70.60;;;;;;4992838;28;20057;-76
2022/04/12 12:27:55;;;;;;;14.85;10.48;;;19.80;70.80;;;;;;4994561;28;20046;-74
2022/04/12 12:30:27;;;;;;;15.10;10.93;;;20.10;67.60;;;;;;4995310;28;20057;-76
2022/04/12 12:32:54;;;;;;;13.88;9.75;;;20.30;68.70;;;;;;5028368;28;20386;-75
2022/04/12 12:35:27;;;;;;;17.00;10.10;;;20.30;67.50;;;;;;4997243;28;20501;-74
2022/04/12 12:38:21;;;;;;;15.10;9.20;;;20.40;65.20;;;;;;5011369;28;20052;-76
2022/04/12 12:40:47;;;;;;;16.00;10.10;;;20.10;62.80;;;;;;5015208;28;20116;-75
2022/04/12 12:43:15;;;;;;;14.65;9.95;;;20.10;66.20;;;;;;4986112;28;20046;-76
2022/04/12 12:45:46;;;;;;;15.48;10.50;;;20.30;67.30;;;;;;4993979;28;20076;-75
2022/04/12 12:48:13;;;;;;;;;;;20.20;62.30;;;;;;4994384;28;20124;-76
2022/04/12 12:50:40;;;;;;;14.52;9.77;;;20.20;60.80;;;;;;5008134;28;19971;-76